createdAt,value
2022-08-17T00:00:51.699Z,9.719533
2022-08-17T00:01:52.749Z,9.719491
2022-08-17T00:02:43.937Z,9.719630
2022-08-17T00:03:42.929Z,9.719622
2022-08-17T00:04:47.030Z,9.719532
2022-08-17T00:05:43.905Z,9.719691
2022-08-17T00:06:42.906Z,9.719672
2022-08-17T00:07:42.883Z,9.719569
2022-08-17T00:08:42.873Z,9.719510
2022-08-17T00:09:42.866Z,9.719602
2022-08-17T00:10:42.845Z,9.719635
2022-08-17T00:11:43.057Z,9.719656
2022-08-17T00:12:44.735Z,9.719674
2022-08-17T00:13:42.825Z,9.719554
2022-08-17T00:14:42.812Z,9.719545
2022-08-17T00:15:42.809Z,9.719657
2022-08-17T00:16:55.871Z,9.719717
2022-08-17T00:17:43.786Z,9.719583
2022-08-17T00:18:53.808Z,9.719419
2022-08-17T00:19:43.783Z,9.719596
2022-08-17T00:20:42.754Z,9.719659
2022-08-17T00:22:29.849Z,9.719661
2022-08-17T00:22:43.750Z,9.719616
2022-08-17T00:23:49.060Z,9.719529
2022-08-17T00:24:43.712Z,9.719626
2022-08-17T00:25:42.707Z,9.719628
2022-08-17T00:26:44.877Z,9.719657
2022-08-17T00:27:42.686Z,9.719700
2022-08-17T00:28:42.670Z,9.719662
2022-08-17T00:29:42.853Z,9.719568
2022-08-17T00:30:50.849Z,9.719533
2022-08-17T00:31:43.677Z,9.719553
2022-08-17T00:33:23.255Z,9.719567
2022-08-17T00:33:43.630Z,9.719578
2022-08-17T00:34:42.616Z,9.719588
2022-08-17T00:35:42.642Z,9.719599
2022-08-17T00:36:42.589Z,9.719568
2022-08-17T00:37:42.599Z,9.719595
2022-08-17T00:38:42.576Z,9.719588
2022-08-17T00:39:42.592Z,9.719627
2022-08-17T00:40:44.507Z,9.719622
2022-08-17T00:41:42.890Z,9.719703
2022-08-17T00:42:42.590Z,9.719636
2022-08-17T00:43:42.524Z,9.719613
2022-08-17T00:44:42.514Z,9.719629
2022-08-17T00:45:42.561Z,9.719724
2022-08-17T00:46:42.500Z,9.719690
2022-08-17T00:47:42.507Z,9.719733
2022-08-17T00:48:42.568Z,9.719629
2022-08-17T00:49:42.469Z,9.719606
2022-08-17T00:50:42.458Z,9.719554
2022-08-17T00:51:42.455Z,9.719575
2022-08-17T00:52:42.483Z,9.719579
2022-08-17T00:53:42.432Z,9.719624
2022-08-17T00:54:42.662Z,9.719645
2022-08-17T00:55:42.416Z,9.719658
2022-08-17T00:56:42.399Z,9.719649
2022-08-17T00:57:42.410Z,9.719626
2022-08-17T00:58:42.605Z,9.719623
2022-08-17T00:59:42.705Z,9.719632
2022-08-17T01:00:42.450Z,9.719641
2022-08-17T01:01:42.376Z,9.719638
2022-08-17T01:02:43.056Z,9.719630
2022-08-17T01:03:42.338Z,9.719595
2022-08-17T01:04:42.323Z,9.719647
2022-08-17T01:05:42.644Z,9.719662
2022-08-17T01:06:42.321Z,9.719631
2022-08-17T01:07:42.308Z,9.719610
2022-08-17T01:08:42.292Z,9.719617
2022-08-17T01:09:42.283Z,9.719594
2022-08-17T01:10:59.866Z,9.719618
2022-08-17T01:11:43.279Z,9.719609
2022-08-17T01:12:42.289Z,9.719600
2022-08-17T01:13:42.264Z,9.719577
2022-08-17T01:14:42.225Z,9.719608
2022-08-17T01:15:42.218Z,9.719618
2022-08-17T01:16:42.223Z,9.719625
2022-08-17T01:17:42.210Z,9.719637
2022-08-17T01:18:42.195Z,9.719629
2022-08-17T01:19:42.272Z,9.719637
2022-08-17T01:20:47.902Z,9.719627
2022-08-17T01:21:42.181Z,9.719647
2022-08-17T01:22:42.185Z,9.719658
2022-08-17T01:23:42.147Z,9.719654
2022-08-17T01:24:42.129Z,9.719644
2022-08-17T01:25:42.120Z,9.719633
2022-08-17T01:26:42.127Z,9.719611
2022-08-17T01:27:42.097Z,9.719612
2022-08-17T01:28:54.180Z,9.719634
2022-08-17T01:29:43.085Z,9.719640
2022-08-17T01:30:56.943Z,9.719635
2022-08-17T01:31:43.077Z,9.719632
2022-08-17T01:32:42.195Z,9.719632
2022-08-17T01:33:42.045Z,9.719632
2022-08-17T01:34:43.589Z,9.719605
2022-08-17T01:35:43.106Z,9.719630
2022-08-17T01:36:42.020Z,9.719616
2022-08-17T01:37:42.017Z,9.719655
2022-08-17T01:38:41.995Z,9.719668
2022-08-17T01:39:42.068Z,9.719657
2022-08-17T01:40:41.975Z,9.719654
2022-08-17T01:41:41.967Z,9.719694
2022-08-17T01:42:42.004Z,9.719683
2022-08-17T01:43:41.944Z,9.719657
2022-08-17T01:44:41.927Z,9.719669
2022-08-17T01:45:41.932Z,9.719647
2022-08-17T01:46:41.924Z,9.719663
2022-08-17T01:47:41.923Z,9.719696
2022-08-17T01:48:41.899Z,9.719687
2022-08-17T01:49:41.892Z,9.719658
2022-08-17T01:50:41.882Z,9.719605
2022-08-17T01:51:41.895Z,9.719605
2022-08-17T01:52:41.961Z,9.719665
2022-08-17T01:53:41.860Z,9.719605
2022-08-17T01:54:41.836Z,9.719584
2022-08-17T01:55:41.836Z,9.719547
2022-08-17T01:56:41.819Z,9.719563
2022-08-17T01:57:41.833Z,9.719629
2022-08-17T01:58:41.805Z,9.719612
2022-08-17T01:59:41.797Z,9.719642
2022-08-17T02:00:59.726Z,9.719644
2022-08-17T02:01:42.848Z,9.719646
2022-08-17T02:02:41.854Z,9.719641
2022-08-17T02:03:41.759Z,9.719625
2022-08-17T02:04:42.747Z,9.719605
2022-08-17T02:05:41.740Z,9.719634
2022-08-17T02:06:52.879Z,9.719646
2022-08-17T02:07:59.741Z,9.719601
2022-08-17T02:09:01.932Z,9.719652
2022-08-17T02:09:42.771Z,9.719681
2022-08-17T02:10:46.652Z,9.719625
2022-08-17T02:11:42.701Z,9.719632
2022-08-17T02:12:41.690Z,9.719720
2022-08-17T02:13:41.660Z,9.719642
2022-08-17T02:14:41.668Z,9.719659
2022-08-17T02:15:41.853Z,9.719707
2022-08-17T02:16:41.633Z,9.719702
2022-08-17T02:17:41.631Z,9.719698
2022-08-17T02:18:41.648Z,9.719687
2022-08-17T02:19:41.595Z,9.719753
2022-08-17T02:20:42.859Z,9.719768
2022-08-17T02:21:41.582Z,9.719682
2022-08-17T02:22:41.630Z,9.719698
2022-08-17T02:23:41.579Z,9.719681
2022-08-17T02:24:59.932Z,9.719634
2022-08-17T02:25:42.546Z,9.719648
2022-08-17T02:26:41.540Z,9.719705
2022-08-17T02:27:41.615Z,9.719662
2022-08-17T02:28:41.526Z,9.719708
2022-08-17T02:29:41.512Z,9.719709
2022-08-17T02:30:59.802Z,9.719693
2022-08-17T02:31:42.488Z,9.719693
2022-08-17T02:32:41.503Z,9.719682
2022-08-17T02:33:43.188Z,9.719709
2022-08-17T02:34:41.467Z,9.719680
2022-08-17T02:35:41.453Z,9.719658
2022-08-17T02:36:41.830Z,9.719637
2022-08-17T02:37:41.581Z,9.719633
2022-08-17T02:38:41.428Z,9.719651
2022-08-17T02:39:41.460Z,9.719666
2022-08-17T02:40:41.411Z,9.719653
2022-08-17T02:41:41.399Z,9.719648
2022-08-17T02:42:41.411Z,9.719669
2022-08-17T02:43:41.379Z,9.719682
2022-08-17T02:44:41.369Z,9.719710
2022-08-17T02:45:41.436Z,9.719649
2022-08-17T02:46:41.504Z,9.719651
2022-08-17T02:47:41.415Z,9.719641
2022-08-17T02:48:41.353Z,9.719631
2022-08-17T02:49:45.113Z,9.719603
2022-08-17T02:50:42.314Z,9.719619
2022-08-17T02:51:41.303Z,9.719620
2022-08-17T02:53:01.583Z,9.719672
2022-08-17T02:53:42.387Z,9.719625
2022-08-17T02:54:42.507Z,9.719560
2022-08-17T02:55:41.263Z,9.719597
2022-08-17T02:56:41.261Z,9.719610
2022-08-17T02:57:41.271Z,9.719627
2022-08-17T02:58:41.243Z,9.719647
2022-08-17T02:59:46.741Z,9.719636
2022-08-17T03:00:42.229Z,9.719644
2022-08-17T03:01:41.247Z,9.719645
2022-08-17T03:02:41.232Z,9.719626
2022-08-17T03:03:41.199Z,9.719646
2022-08-17T03:04:41.192Z,9.719642
2022-08-17T03:05:41.173Z,9.719639
2022-08-17T03:06:41.163Z,9.719643
2022-08-17T03:07:41.155Z,9.719630
2022-08-17T03:08:41.157Z,9.719617
2022-08-17T03:09:41.131Z,9.719615
2022-08-17T03:10:41.127Z,9.719646
2022-08-17T03:11:41.111Z,9.719651
2022-08-17T03:12:41.115Z,9.719646
2022-08-17T03:13:41.107Z,9.719629
2022-08-17T03:14:41.852Z,9.719622
2022-08-17T03:15:43.882Z,9.719656
2022-08-17T03:16:41.071Z,9.719663
2022-08-17T03:17:41.056Z,9.719707
2022-08-17T03:18:41.070Z,9.719643
2022-08-17T03:19:43.063Z,9.719599
2022-08-17T03:20:41.045Z,9.719687
2022-08-17T03:21:41.018Z,9.719613
2022-08-17T03:22:41.021Z,9.719697
2022-08-17T03:23:41.010Z,9.719624
2022-08-17T03:24:40.987Z,9.719683
2022-08-17T03:25:40.977Z,9.719692
2022-08-17T03:26:40.977Z,9.719695
2022-08-17T03:27:41.978Z,9.719670
2022-08-17T03:28:40.955Z,9.719538
2022-08-17T03:29:40.974Z,9.719546
2022-08-17T03:30:40.937Z,9.719378
2022-08-17T03:31:40.940Z,9.719377
2022-08-17T03:32:40.918Z,9.719568
2022-08-17T03:33:40.922Z,9.719322
2022-08-17T03:34:40.893Z,9.719567
2022-08-17T03:35:40.895Z,9.719661
2022-08-17T03:36:40.882Z,9.719666
2022-08-17T03:37:40.863Z,9.719719
2022-08-17T03:38:41.161Z,9.719785
2022-08-17T03:39:40.917Z,9.719697
2022-08-17T03:40:56.792Z,9.719700
2022-08-17T03:41:41.828Z,9.719608
2022-08-17T03:42:40.826Z,9.719675
2022-08-17T03:43:40.822Z,9.719605
2022-08-17T03:44:40.853Z,9.719665
2022-08-17T03:45:40.784Z,9.719466
2022-08-17T03:46:40.785Z,9.719625
2022-08-17T03:47:40.820Z,9.719754
2022-08-17T03:48:40.763Z,9.719670
2022-08-17T03:49:40.753Z,9.719663
2022-08-17T03:50:40.745Z,9.719631
2022-08-17T03:51:40.735Z,9.719650
2022-08-17T03:52:40.722Z,9.719638
2022-08-17T03:53:40.731Z,9.719598
2022-08-17T03:54:40.713Z,9.719658
2022-08-17T03:55:40.695Z,9.719585
2022-08-17T03:56:40.692Z,9.719621
2022-08-17T03:57:40.683Z,9.719655
2022-08-17T03:58:40.699Z,9.719584
2022-08-17T03:59:40.868Z,9.719613
2022-08-17T04:00:40.910Z,9.719586
2022-08-17T04:01:40.682Z,9.719700
2022-08-17T04:02:40.623Z,9.719716
2022-08-17T04:03:40.634Z,9.719683
2022-08-17T04:04:40.612Z,9.719656
2022-08-17T04:05:40.594Z,9.719664
2022-08-17T04:06:40.593Z,9.719578
2022-08-17T04:07:40.600Z,9.719514
2022-08-17T04:08:40.570Z,9.719488
2022-08-17T04:09:40.555Z,9.719620
2022-08-17T04:10:41.949Z,9.719700
2022-08-17T04:11:40.532Z,9.719664
2022-08-17T04:12:40.544Z,9.719646
2022-08-17T04:13:40.518Z,9.719647
2022-08-17T04:14:52.960Z,9.719673
2022-08-17T04:15:41.496Z,9.719671
2022-08-17T04:16:40.553Z,9.719646
2022-08-17T04:17:40.491Z,9.719625
2022-08-17T04:18:40.470Z,9.719629
2022-08-17T04:19:40.454Z,9.719635
2022-08-17T04:20:40.450Z,9.719628
2022-08-17T04:21:40.482Z,9.719640
2022-08-17T04:22:40.448Z,9.719627
2022-08-17T04:23:40.425Z,9.719616
2022-08-17T04:24:40.413Z,9.719595
2022-08-17T04:25:40.402Z,9.719581
2022-08-17T04:26:52.234Z,9.719646
2022-08-17T04:27:41.413Z,9.719601
2022-08-17T04:28:40.375Z,9.719674
2022-08-17T04:29:50.049Z,9.719617
2022-08-17T04:30:41.354Z,9.719683
2022-08-17T04:31:40.345Z,9.719664
2022-08-17T04:33:19.177Z,9.719650
2022-08-17T04:33:41.327Z,9.719651
2022-08-17T04:34:40.312Z,9.719695
2022-08-17T04:35:40.305Z,9.719675
2022-08-17T04:36:40.301Z,9.719701
2022-08-17T04:37:41.366Z,9.719738
2022-08-17T04:38:40.287Z,9.719635
2022-08-17T04:39:40.327Z,9.719650
2022-08-17T04:40:40.260Z,9.719726
2022-08-17T04:41:40.250Z,9.719721
2022-08-17T04:42:40.271Z,9.719724
2022-08-17T04:43:40.245Z,9.719663
2022-08-17T04:44:40.225Z,9.719651
2022-08-17T04:45:40.213Z,9.719708
2022-08-17T04:46:41.206Z,9.719652
2022-08-17T04:47:40.189Z,9.719628
2022-08-17T04:48:40.196Z,9.719716
2022-08-17T04:49:40.177Z,9.719652
2022-08-17T04:50:40.170Z,9.719686
2022-08-17T04:51:40.165Z,9.719666
2022-08-17T04:52:54.438Z,9.719831
2022-08-17T04:53:41.257Z,9.719790
2022-08-17T04:54:40.139Z,9.719744
2022-08-17T04:55:40.164Z,9.719699
2022-08-17T04:56:40.119Z,9.719827
2022-08-17T04:57:44.536Z,9.720003
2022-08-17T04:58:40.201Z,9.719893
2022-08-17T04:59:40.091Z,9.720021
2022-08-17T05:00:40.085Z,9.720223
2022-08-17T05:01:40.103Z,9.719948
2022-08-17T05:02:40.164Z,9.719662
2022-08-17T05:03:41.060Z,9.719702
2022-08-17T05:04:40.035Z,9.719624
2022-08-17T05:05:40.031Z,9.719613
2022-08-17T05:06:40.012Z,9.719554
2022-08-17T05:07:40.005Z,9.719647
2022-08-17T05:08:40.001Z,9.719592
2022-08-17T05:09:40.031Z,9.719588
2022-08-17T05:10:45.507Z,9.719647
2022-08-17T05:11:44.822Z,9.719755
2022-08-17T05:12:39.961Z,9.719696
2022-08-17T05:13:39.959Z,9.719602
2022-08-17T05:14:39.938Z,9.719666
2022-08-17T05:15:39.932Z,9.719517
2022-08-17T05:16:40.919Z,9.719548
2022-08-17T05:17:39.920Z,9.719481
2022-08-17T05:18:39.934Z,9.719588
2022-08-17T05:19:39.894Z,9.719581
2022-08-17T05:20:39.877Z,9.719598
2022-08-17T05:21:39.870Z,9.719712
2022-08-17T05:22:39.857Z,9.719532
2022-08-17T05:23:43.137Z,9.719334
2022-08-17T05:24:50.467Z,9.719124
2022-08-17T05:25:40.831Z,9.719494
2022-08-17T05:26:39.902Z,9.719590
2022-08-17T05:27:39.815Z,9.719738
2022-08-17T05:28:39.849Z,9.719599
2022-08-17T05:29:39.789Z,9.719608
2022-08-17T05:30:39.780Z,9.719485
2022-08-17T05:31:39.771Z,9.719477
2022-08-17T05:32:40.462Z,9.719597
2022-08-17T05:33:43.984Z,9.719704
2022-08-17T05:34:39.738Z,9.719659
2022-08-17T05:35:39.731Z,9.719563
2022-08-17T05:36:43.955Z,9.719449
2022-08-17T05:37:39.709Z,9.719395
2022-08-17T05:38:39.704Z,9.719481
2022-08-17T05:39:39.771Z,9.719443
2022-08-17T05:40:39.679Z,9.719461
2022-08-17T05:41:39.666Z,9.719550
2022-08-17T05:42:39.674Z,9.719527
2022-08-17T05:43:39.671Z,9.719675
2022-08-17T05:44:39.708Z,9.719607
2022-08-17T05:45:55.907Z,9.719601
2022-08-17T05:46:40.621Z,9.719624
2022-08-17T05:47:39.613Z,9.719641
2022-08-17T05:48:40.454Z,9.719655
2022-08-17T05:49:39.599Z,9.719646
2022-08-17T05:50:39.580Z,9.719657
2022-08-17T05:51:39.655Z,9.719618
2022-08-17T05:52:39.561Z,9.719680
2022-08-17T05:53:39.564Z,9.719645
2022-08-17T05:54:39.548Z,9.719687
2022-08-17T05:55:39.529Z,9.719659
2022-08-17T05:56:39.531Z,9.719679
2022-08-17T05:57:49.674Z,9.719725
2022-08-17T05:58:40.512Z,9.719756
2022-08-17T05:59:39.491Z,9.719724
2022-08-17T06:00:41.825Z,9.719725
2022-08-17T06:01:39.542Z,9.719714
2022-08-17T06:02:42.016Z,9.719708
2022-08-17T06:03:40.464Z,9.719704
2022-08-17T06:04:39.523Z,9.719714
2022-08-17T06:05:39.437Z,9.719709
2022-08-17T06:06:39.415Z,9.719717
2022-08-17T06:07:39.409Z,9.719722
2022-08-17T06:08:39.416Z,9.719760
2022-08-17T06:09:39.391Z,9.719845
2022-08-17T06:10:39.394Z,9.719658
2022-08-17T06:11:39.382Z,9.719626
2022-08-17T06:12:39.361Z,9.719658
2022-08-17T06:13:39.369Z,9.719637
2022-08-17T06:14:39.343Z,9.719624
2022-08-17T06:15:39.347Z,9.719631
2022-08-17T06:16:39.323Z,9.719618
2022-08-17T06:17:39.327Z,9.719659
2022-08-17T06:18:39.315Z,9.719683
2022-08-17T06:19:39.298Z,9.719679
2022-08-17T06:20:39.302Z,9.719676
2022-08-17T06:21:39.358Z,9.719719
2022-08-17T06:22:39.355Z,9.719700
2022-08-17T06:23:39.268Z,9.719691
2022-08-17T06:24:39.246Z,9.719676
2022-08-17T06:25:39.239Z,9.719678
2022-08-17T06:26:42.970Z,9.719689
2022-08-17T06:27:39.223Z,9.719657
2022-08-17T06:28:39.253Z,9.719671
2022-08-17T06:29:39.218Z,9.719627
2022-08-17T06:30:57.759Z,9.719631
2022-08-17T06:31:40.188Z,9.719646
2022-08-17T06:32:39.168Z,9.719627
2022-08-17T06:33:39.178Z,9.719614
2022-08-17T06:34:39.157Z,9.719601
2022-08-17T06:35:39.138Z,9.719677
2022-08-17T06:36:39.131Z,9.719696
2022-08-17T06:37:39.136Z,9.719656
2022-08-17T06:38:39.138Z,9.719640
2022-08-17T06:39:39.155Z,9.719739
2022-08-17T06:40:39.092Z,9.719728
2022-08-17T06:41:39.086Z,9.719703
2022-08-17T06:43:05.710Z,9.719684
2022-08-17T06:43:40.091Z,9.719713
2022-08-17T06:44:43.631Z,9.719743
2022-08-17T06:45:40.048Z,9.719741
2022-08-17T06:46:39.050Z,9.719722
2022-08-17T06:47:39.023Z,9.719678
2022-08-17T06:48:39.011Z,9.719753
2022-08-17T06:49:39.025Z,9.719757
2022-08-17T06:50:38.994Z,9.719744
2022-08-17T06:51:38.985Z,9.719747
2022-08-17T06:52:46.656Z,9.719738
2022-08-17T06:53:39.961Z,9.719693
2022-08-17T06:54:38.966Z,9.719676
2022-08-17T06:55:38.948Z,9.719662
2022-08-17T06:56:53.727Z,9.719671
2022-08-17T06:57:39.927Z,9.719649
2022-08-17T06:58:40.285Z,9.719667
2022-08-17T06:59:54.618Z,9.719620
2022-08-17T07:00:40.001Z,9.719623
2022-08-17T07:01:38.933Z,9.719590
2022-08-17T07:02:52.431Z,9.719611
2022-08-17T07:03:39.872Z,9.719592
2022-08-17T07:04:38.876Z,9.719639
2022-08-17T07:05:38.938Z,9.719690
2022-08-17T07:06:38.836Z,9.719676
2022-08-17T07:07:38.838Z,9.719678
2022-08-17T07:08:38.836Z,9.719665
2022-08-17T07:09:38.817Z,9.719668
2022-08-17T07:10:38.805Z,9.719666
2022-08-17T07:11:38.790Z,9.719660
2022-08-17T07:12:38.787Z,9.719625
2022-08-17T07:13:38.795Z,9.719661
2022-08-17T07:14:38.761Z,9.719649
2022-08-17T07:15:38.758Z,9.719646
2022-08-17T07:16:38.745Z,9.719669
2022-08-17T07:17:48.064Z,9.719675
2022-08-17T07:18:38.743Z,9.719636
2022-08-17T07:19:38.714Z,9.719664
2022-08-17T07:20:38.704Z,9.719654
2022-08-17T07:21:38.702Z,9.719638
2022-08-17T07:22:50.572Z,9.719657
2022-08-17T07:23:39.693Z,9.719653
2022-08-17T07:24:38.665Z,9.719666
2022-08-17T07:25:38.659Z,9.719665
2022-08-17T07:26:38.647Z,9.719626
2022-08-17T07:27:38.643Z,9.719650
2022-08-17T07:28:38.647Z,9.719639
2022-08-17T07:29:38.623Z,9.719636
2022-08-17T07:30:46.954Z,9.719636
2022-08-17T07:31:39.601Z,9.719657
2022-08-17T07:32:38.588Z,9.719668
2022-08-17T07:33:38.601Z,9.719662
2022-08-17T07:34:38.564Z,9.719669
2022-08-17T07:35:41.415Z,9.719697
2022-08-17T07:36:39.551Z,9.719702
2022-08-17T07:37:38.545Z,9.719653
2022-08-17T07:38:38.556Z,9.719625
2022-08-17T07:39:59.609Z,9.719663
2022-08-17T07:40:39.554Z,9.719664
2022-08-17T07:41:57.555Z,9.719754
2022-08-17T07:42:44.535Z,9.719754
2022-08-17T07:43:38.490Z,9.719676
2022-08-17T07:44:38.484Z,9.719711
2022-08-17T07:45:38.463Z,9.719701
2022-08-17T07:46:38.453Z,9.719718
2022-08-17T07:47:38.449Z,9.719741
2022-08-17T07:48:38.446Z,9.719698
2022-08-17T07:49:38.439Z,9.719668
2022-08-17T07:50:38.411Z,9.719589
2022-08-17T07:51:38.450Z,9.719722
2022-08-17T07:52:50.397Z,9.719659
2022-08-17T07:53:39.397Z,9.719686
2022-08-17T07:54:38.395Z,9.719583
2022-08-17T07:55:38.370Z,9.719639
2022-08-17T07:56:38.413Z,9.719667
2022-08-17T07:57:38.353Z,9.719694
2022-08-17T07:58:38.338Z,9.719728
2022-08-17T07:59:38.357Z,9.719678
2022-08-17T08:00:38.319Z,9.719591
2022-08-17T08:01:39.632Z,9.719554
2022-08-17T08:02:38.317Z,9.719710
2022-08-17T08:03:38.300Z,9.719611
2022-08-17T08:05:50.162Z,9.719684
2022-08-17T08:06:39.279Z,9.719687
2022-08-17T08:07:38.288Z,9.719658
2022-08-17T08:08:38.294Z,9.719612
2022-08-17T08:09:38.253Z,9.719707
2022-08-17T08:10:38.249Z,9.719697
2022-08-17T08:11:42.441Z,9.719713
2022-08-17T08:12:39.213Z,9.719776
2022-08-17T08:13:38.205Z,9.719612
2022-08-17T08:14:38.206Z,9.719557
2022-08-17T08:15:38.186Z,9.719646
2022-08-17T08:16:38.219Z,9.719623
2022-08-17T08:17:38.167Z,9.719604
2022-08-17T08:18:53.636Z,9.719621
2022-08-17T08:19:39.169Z,9.719652
2022-08-17T08:20:52.103Z,9.719641
2022-08-17T08:21:39.212Z,9.719625
2022-08-17T08:22:38.115Z,9.719628
2022-08-17T08:23:38.105Z,9.719645
2022-08-17T08:24:38.168Z,9.719630
2022-08-17T08:25:38.087Z,9.719668
2022-08-17T08:26:38.080Z,9.719657
2022-08-17T08:27:38.071Z,9.719689
2022-08-17T08:28:38.052Z,9.719631
2022-08-17T08:29:38.092Z,9.719597
2022-08-17T08:30:38.057Z,9.719622
2022-08-17T08:31:42.170Z,9.719661
2022-08-17T08:32:38.030Z,9.719613
2022-08-17T08:33:38.013Z,9.719660
2022-08-17T08:34:53.495Z,9.719662
2022-08-17T08:35:39.004Z,9.719624
2022-08-17T08:37:14.145Z,9.719652
2022-08-17T08:37:42.633Z,9.719647
2022-08-17T08:38:38.010Z,9.719588
2022-08-17T08:39:38.061Z,9.719565
2022-08-17T08:40:37.969Z,9.719595
2022-08-17T08:41:37.940Z,9.719642
2022-08-17T08:42:37.954Z,9.719674
2022-08-17T08:43:37.932Z,9.719747
2022-08-17T08:44:59.702Z,9.719653
2022-08-17T08:45:38.980Z,9.719608
2022-08-17T08:46:37.891Z,9.719622
2022-08-17T08:47:37.928Z,9.719645
2022-08-17T08:48:58.186Z,9.719654
2022-08-17T08:50:02.584Z,9.719652
2022-08-17T08:50:38.872Z,9.719672
2022-08-17T08:51:37.850Z,9.719677
2022-08-17T08:52:37.841Z,9.719633
2022-08-17T08:53:37.826Z,9.719596
2022-08-17T08:54:37.828Z,9.719626
2022-08-17T08:55:37.842Z,9.719627
2022-08-17T08:56:37.853Z,9.719616
2022-08-17T08:57:37.801Z,9.719614
2022-08-17T08:58:41.951Z,9.719652
2022-08-17T08:59:41.836Z,9.719616
2022-08-17T09:00:37.864Z,9.719646
2022-08-17T09:01:37.947Z,9.719667
2022-08-17T09:02:37.840Z,9.719622
2022-08-17T09:03:52.166Z,9.719636
2022-08-17T09:05:10.650Z,9.719646
2022-08-17T09:05:38.755Z,9.719627
2022-08-17T09:06:39.453Z,9.719639
2022-08-17T09:07:37.831Z,9.719582
2022-08-17T09:08:37.718Z,9.719502
2022-08-17T09:09:37.719Z,9.719440
2022-08-17T09:10:37.826Z,9.719683
2022-08-17T09:12:02.220Z,9.719540
2022-08-17T09:12:38.658Z,9.719596
2022-08-17T09:13:37.699Z,9.719663
2022-08-17T09:14:46.730Z,9.719682
2022-08-17T09:15:38.717Z,9.719727
2022-08-17T09:16:37.661Z,9.719727
2022-08-17T09:17:37.624Z,9.719764
2022-08-17T09:19:01.043Z,9.719739
2022-08-17T09:19:38.601Z,9.719739
2022-08-17T09:20:37.632Z,9.719692
2022-08-17T09:21:37.648Z,9.719679
2022-08-17T09:22:38.581Z,9.719670
2022-08-17T09:23:37.578Z,9.719663
2022-08-17T09:24:37.553Z,9.719665
2022-08-17T09:25:37.546Z,9.719701
2022-08-17T09:26:37.575Z,9.719660
2022-08-17T09:27:37.537Z,9.719681
2022-08-17T09:28:37.542Z,9.719668
2022-08-17T09:29:37.516Z,9.719675
2022-08-17T09:30:37.512Z,9.719644
2022-08-17T09:31:49.181Z,9.719662
2022-08-17T09:32:38.489Z,9.719672
2022-08-17T09:33:37.508Z,9.719660
2022-08-17T09:34:37.480Z,9.719625
2022-08-17T09:35:37.630Z,9.719630
2022-08-17T09:36:37.461Z,9.719638
2022-08-17T09:37:37.443Z,9.719643
2022-08-17T09:38:37.437Z,9.719663
2022-08-17T09:39:37.440Z,9.719685
2022-08-17T09:40:37.415Z,9.719692
2022-08-17T09:41:37.424Z,9.719608
2022-08-17T09:42:37.404Z,9.719666
2022-08-17T09:43:37.395Z,9.719639
2022-08-17T09:44:37.388Z,9.719673
2022-08-17T09:45:37.381Z,9.719664
2022-08-17T09:46:38.954Z,9.719636
2022-08-17T09:47:37.364Z,9.719657
2022-08-17T09:48:37.351Z,9.719693
2022-08-17T09:49:37.347Z,9.719692
2022-08-17T09:51:03.747Z,9.719684
2022-08-17T09:51:38.384Z,9.719748
2022-08-17T09:52:37.317Z,9.719713
2022-08-17T09:53:37.306Z,9.719687
2022-08-17T09:54:39.855Z,9.719674
2022-08-17T09:55:37.287Z,9.719663
2022-08-17T09:56:40.009Z,9.719696
2022-08-17T09:57:37.270Z,9.719676
2022-08-17T09:58:37.266Z,9.719645
2022-08-17T09:59:38.572Z,9.719633
2022-08-17T10:00:37.250Z,9.719648
2022-08-17T10:01:37.301Z,9.719611
2022-08-17T10:02:37.230Z,9.719636
2022-08-17T10:03:37.257Z,9.719629
2022-08-17T10:04:37.211Z,9.719641
2022-08-17T10:05:37.201Z,9.719617
2022-08-17T10:06:37.222Z,9.719625
2022-08-17T10:07:37.182Z,9.719666
2022-08-17T10:08:37.177Z,9.719651
2022-08-17T10:09:37.169Z,9.719634
2022-08-17T10:10:37.159Z,9.719632
2022-08-17T10:11:37.164Z,9.719654
2022-08-17T10:12:37.140Z,9.719649
2022-08-17T10:13:37.159Z,9.719633
2022-08-17T10:14:43.974Z,9.719655
2022-08-17T10:15:38.129Z,9.719702
2022-08-17T10:16:37.126Z,9.719631
2022-08-17T10:17:37.100Z,9.719604
2022-08-17T10:18:37.092Z,9.719700
2022-08-17T10:19:37.072Z,9.719731
2022-08-17T10:20:37.075Z,9.719610
2022-08-17T10:21:37.245Z,9.719673
2022-08-17T10:22:37.888Z,9.719691
2022-08-17T10:23:37.045Z,9.719696
2022-08-17T10:24:37.036Z,9.719628
2022-08-17T10:25:54.261Z,9.719592
2022-08-17T10:26:46.255Z,9.719640
2022-08-17T10:27:38.067Z,9.719634
2022-08-17T10:28:37.011Z,9.719655
2022-08-17T10:29:47.278Z,9.719566
2022-08-17T10:30:38.075Z,9.719581
2022-08-17T10:31:37.008Z,9.719598
2022-08-17T10:32:36.970Z,9.719551
2022-08-17T10:33:36.953Z,9.719591
2022-08-17T10:34:41.106Z,9.719629
2022-08-17T10:35:36.938Z,9.719615
2022-08-17T10:36:36.962Z,9.719533
2022-08-17T10:37:36.928Z,9.719534
2022-08-17T10:38:36.920Z,9.719592
2022-08-17T10:39:52.609Z,9.719594
2022-08-17T10:40:37.905Z,9.719581
2022-08-17T10:41:40.210Z,9.719578
2022-08-17T10:42:36.879Z,9.719596
2022-08-17T10:43:36.865Z,9.719616
2022-08-17T10:44:40.799Z,9.719610
2022-08-17T10:45:36.846Z,9.719622
2022-08-17T10:46:36.887Z,9.719622
2022-08-17T10:47:54.747Z,9.719596
2022-08-17T10:48:37.909Z,9.719597
2022-08-17T10:49:36.815Z,9.719618
2022-08-17T10:50:36.813Z,9.719635
2022-08-17T10:51:36.820Z,9.719694
2022-08-17T10:52:36.783Z,9.719604
2022-08-17T10:53:36.783Z,9.719632
2022-08-17T10:54:36.771Z,9.719637
2022-08-17T10:55:36.770Z,9.719650
2022-08-17T10:56:36.772Z,9.719660
2022-08-17T10:57:36.744Z,9.719668
2022-08-17T10:58:36.741Z,9.719702
2022-08-17T10:59:36.729Z,9.719691
2022-08-17T11:00:36.887Z,9.719675
2022-08-17T11:01:36.731Z,9.719699
2022-08-17T11:02:36.704Z,9.719747
2022-08-17T11:03:36.715Z,9.719660
2022-08-17T11:04:36.684Z,9.719672
2022-08-17T11:05:40.202Z,9.719699
2022-08-17T11:06:37.704Z,9.719681
2022-08-17T11:07:36.656Z,9.719604
2022-08-17T11:08:36.649Z,9.719645
2022-08-17T11:09:36.667Z,9.719685
2022-08-17T11:10:36.628Z,9.719696
2022-08-17T11:11:36.618Z,9.719674
2022-08-17T11:12:36.631Z,9.719648
2022-08-17T11:13:36.594Z,9.719689
2022-08-17T11:14:36.592Z,9.719665
2022-08-17T11:15:36.608Z,9.719675
2022-08-17T11:16:36.576Z,9.719691
2022-08-17T11:17:36.569Z,9.719685
2022-08-17T11:18:36.603Z,9.719657
2022-08-17T11:19:36.544Z,9.719649
2022-08-17T11:20:36.544Z,9.719668
2022-08-17T11:21:36.518Z,9.719687
2022-08-17T11:22:36.707Z,9.719696
2022-08-17T11:23:36.498Z,9.719648
2022-08-17T11:24:36.492Z,9.719676
2022-08-17T11:25:36.478Z,9.719666
2022-08-17T11:26:36.493Z,9.719652
2022-08-17T11:27:36.478Z,9.719682
2022-08-17T11:28:36.457Z,9.719664
2022-08-17T11:29:36.444Z,9.719627
2022-08-17T11:30:36.436Z,9.719689
2022-08-17T11:31:38.280Z,9.719709
2022-08-17T11:32:36.427Z,9.719713
2022-08-17T11:33:36.857Z,9.719727
2022-08-17T11:34:36.402Z,9.719707
2022-08-17T11:35:36.393Z,9.719688
2022-08-17T11:36:36.515Z,9.719709
2022-08-17T11:37:36.387Z,9.719674
2022-08-17T11:38:36.369Z,9.719722
2022-08-17T11:39:36.440Z,9.719680
2022-08-17T11:40:36.370Z,9.719697
2022-08-17T11:41:36.341Z,9.719677
2022-08-17T11:42:36.345Z,9.719633
2022-08-17T11:43:39.564Z,9.719684
2022-08-17T11:44:37.326Z,9.719709
2022-08-17T11:45:36.311Z,9.719691